sensor_id;sensor_type;location;lat;lon;timestamp;temperature;humidity
37910;DHT22;23741;49.446;8.754;2023-11-19T00:00:05;12.50;74.30
37910;DHT22;23741;49.446;8.754;2023-11-19T00:02:12;12.50;74.50
37910;DHT22;23741;49.446;8.754;2023-11-19T00:04:14;12.50;74.60
37910;DHT22;23741;49.446;8.754;2023-11-19T00:06:16;12.50;74.40
37910;DHT22;23741;49.446;8.754;2023-11-19T00:08:18;12.50;74.60
37910;DHT22;23741;49.446;8.754;2023-11-19T00:10:20;12.50;74.50
37910;DHT22;23741;49.446;8.754;2023-11-19T00:12:22;12.50;74.20
37910;DHT22;23741;49.446;8.754;2023-11-19T00:14:26;12.50;74.50
37910;DHT22;23741;49.446;8.754;2023-11-19T00:16:28;12.60;74.60
37910;DHT22;23741;49.446;8.754;2023-11-19T00:18:29;12.60;74.40
37910;DHT22;23741;49.446;8.754;2023-11-19T00:20:31;12.60;74.50
37910;DHT22;23741;49.446;8.754;2023-11-19T00:22:33;12.70;74.60
37910;DHT22;23741;49.446;8.754;2023-11-19T00:24:35;12.60;74.60
37910;DHT22;23741;49.446;8.754;2023-11-19T00:26:36;12.60;74.50
37910;DHT22;23741;49.446;8.754;2023-11-19T00:28:38;12.70;74.50
37910;DHT22;23741;49.446;8.754;2023-11-19T00:30:40;12.70;74.60
37910;DHT22;23741;49.446;8.754;2023-11-19T00:32:42;12.70;74.60
37910;DHT22;23741;49.446;8.754;2023-11-19T00:34:44;12.70;74.80
37910;DHT22;23741;49.446;8.754;2023-11-19T00:36:46;12.70;75.00
37910;DHT22;23741;49.446;8.754;2023-11-19T00:38:49;12.70;75.00
37910;DHT22;23741;49.446;8.754;2023-11-19T00:40:50;12.70;75.10
37910;DHT22;23741;49.446;8.754;2023-11-19T00:42:52;12.80;75.10
37910;DHT22;23741;49.446;8.754;2023-11-19T00:44:54;12.80;74.90
37910;DHT22;23741;49.446;8.754;2023-11-19T00:46:56;12.80;75.10
37910;DHT22;23741;49.446;8.754;2023-11-19T00:48:58;12.80;74.90
37910;DHT22;23741;49.446;8.754;2023-11-19T00:51:02;12.80;74.90
37910;DHT22;23741;49.446;8.754;2023-11-19T00:53:05;12.80;74.70
37910;DHT22;23741;49.446;8.754;2023-11-19T00:55:07;12.80;74.70
37910;DHT22;23741;49.446;8.754;2023-11-19T00:57:09;12.80;74.70
37910;DHT22;23741;49.446;8.754;2023-11-19T00:59:11;12.80;74.70
37910;DHT22;23741;49.446;8.754;2023-11-19T01:01:13;12.80;74.20
37910;DHT22;23741;49.446;8.754;2023-11-19T01:03:15;12.80;74.50
37910;DHT22;23741;49.446;8.754;2023-11-19T01:05:17;12.80;74.80
37910;DHT22;23741;49.446;8.754;2023-11-19T01:07:22;12.80;75.00
37910;DHT22;23741;49.446;8.754;2023-11-19T01:09:25;12.90;75.10
37910;DHT22;23741;49.446;8.754;2023-11-19T01:11:28;12.90;75.10
37910;DHT22;23741;49.446;8.754;2023-11-19T01:13:30;12.90;74.90
37910;DHT22;23741;49.446;8.754;2023-11-19T01:15:32;12.90;75.10
37910;DHT22;23741;49.446;8.754;2023-11-19T01:17:34;12.90;75.20
37910;DHT22;23741;49.446;8.754;2023-11-19T01:19:36;12.90;75.00
37910;DHT22;23741;49.446;8.754;2023-11-19T01:21:39;12.90;74.80
37910;DHT22;23741;49.446;8.754;2023-11-19T01:23:41;12.90;74.90
37910;DHT22;23741;49.446;8.754;2023-11-19T01:25:44;12.90;74.80
37910;DHT22;23741;49.446;8.754;2023-11-19T01:27:46;12.90;74.80
37910;DHT22;23741;49.446;8.754;2023-11-19T01:29:48;12.90;75.00
37910;DHT22;23741;49.446;8.754;2023-11-19T01:31:50;13.00;75.00
37910;DHT22;23741;49.446;8.754;2023-11-19T01:33:54;13.00;75.00
37910;DHT22;23741;49.446;8.754;2023-11-19T01:35:56;13.00;75.00
37910;DHT22;23741;49.446;8.754;2023-11-19T01:38:00;13.00;74.80
37910;DHT22;23741;49.446;8.754;2023-11-19T01:40:02;13.00;74.80
37910;DHT22;23741;49.446;8.754;2023-11-19T01:42:08;13.00;74.90
37910;DHT22;23741;49.446;8.754;2023-11-19T01:44:10;13.00;74.90
37910;DHT22;23741;49.446;8.754;2023-11-19T01:46:14;13.00;74.90
37910;DHT22;23741;49.446;8.754;2023-11-19T01:48:16;13.10;75.00
37910;DHT22;23741;49.446;8.754;2023-11-19T01:50:17;13.00;74.80
37910;DHT22;23741;49.446;8.754;2023-11-19T01:52:21;13.10;75.10
37910;DHT22;23741;49.446;8.754;2023-11-19T01:54:23;13.10;75.00
37910;DHT22;23741;49.446;8.754;2023-11-19T01:56:25;13.10;75.00
37910;DHT22;23741;49.446;8.754;2023-11-19T01:58:27;13.10;75.20
37910;DHT22;23741;49.446;8.754;2023-11-19T02:00:31;13.20;75.20
37910;DHT22;23741;49.446;8.754;2023-11-19T02:02:35;13.10;75.00
37910;DHT22;23741;49.446;8.754;2023-11-19T02:04:37;13.10;75.00
37910;DHT22;23741;49.446;8.754;2023-11-19T02:06:40;13.10;75.20
37910;DHT22;23741;49.446;8.754;2023-11-19T02:08:42;13.10;75.20
37910;DHT22;23741;49.446;8.754;2023-11-19T02:10:45;13.10;74.90
37910;DHT22;23741;49.446;8.754;2023-11-19T02:12:47;13.10;75.00
37910;DHT22;23741;49.446;8.754;2023-11-19T02:14:48;13.20;75.20
37910;DHT22;23741;49.446;8.754;2023-11-19T02:16:50;13.20;75.10
37910;DHT22;23741;49.446;8.754;2023-11-19T02:18:52;13.20;75.30
37910;DHT22;23741;49.446;8.754;2023-11-19T02:20:54;13.20;75.20
37910;DHT22;23741;49.446;8.754;2023-11-19T02:22:56;13.20;75.00
37910;DHT22;23741;49.446;8.754;2023-11-19T02:24:59;13.20;75.00
37910;DHT22;23741;49.446;8.754;2023-11-19T02:27:02;13.30;75.20
37910;DHT22;23741;49.446;8.754;2023-11-19T02:29:07;13.10;75.40
37910;DHT22;23741;49.446;8.754;2023-11-19T02:31:10;13.20;75.50
37910;DHT22;23741;49.446;8.754;2023-11-19T02:33:12;13.20;75.50
37910;DHT22;23741;49.446;8.754;2023-11-19T02:35:14;13.20;75.30
37910;DHT22;23741;49.446;8.754;2023-11-19T02:37:16;13.20;75.40
37910;DHT22;23741;49.446;8.754;2023-11-19T02:39:17;13.30;75.60
37910;DHT22;23741;49.446;8.754;2023-11-19T02:41:23;13.30;75.10
37910;DHT22;23741;49.446;8.754;2023-11-19T02:43:25;13.30;75.00
37910;DHT22;23741;49.446;8.754;2023-11-19T02:45:26;13.30;74.90
37910;DHT22;23741;49.446;8.754;2023-11-19T02:47:29;13.30;75.20
37910;DHT22;23741;49.446;8.754;2023-11-19T02:49:32;13.30;75.40
37910;DHT22;23741;49.446;8.754;2023-11-19T02:51:33;13.30;75.40
37910;DHT22;23741;49.446;8.754;2023-11-19T02:53:36;13.30;75.60
37910;DHT22;23741;49.446;8.754;2023-11-19T02:55:41;13.30;75.30
37910;DHT22;23741;49.446;8.754;2023-11-19T02:57:50;13.30;75.20
37910;DHT22;23741;49.446;8.754;2023-11-19T02:59:52;13.30;75.40
37910;DHT22;23741;49.446;8.754;2023-11-19T03:01:54;13.30;75.30
37910;DHT22;23741;49.446;8.754;2023-11-19T03:03:57;13.30;75.10
37910;DHT22;23741;49.446;8.754;2023-11-19T03:06:00;13.30;75.20
37910;DHT22;23741;49.446;8.754;2023-11-19T03:08:06;13.30;74.90
37910;DHT22;23741;49.446;8.754;2023-11-19T03:10:08;13.30;75.10
37910;DHT22;23741;49.446;8.754;2023-11-19T03:12:10;13.30;75.40
37910;DHT22;23741;49.446;8.754;2023-11-19T03:14:12;13.30;75.50
37910;DHT22;23741;49.446;8.754;2023-11-19T03:16:14;13.40;76.40
37910;DHT22;23741;49.446;8.754;2023-11-19T03:18:16;13.40;75.30
37910;DHT22;23741;49.446;8.754;2023-11-19T03:20:17;13.40;75.50
37910;DHT22;23741;49.446;8.754;2023-11-19T03:22:19;13.40;75.70
37910;DHT22;23741;49.446;8.754;2023-11-19T03:24:22;13.50;75.70
37910;DHT22;23741;49.446;8.754;2023-11-19T03:26:24;13.40;75.50
37910;DHT22;23741;49.446;8.754;2023-11-19T03:28:26;13.40;75.20
37910;DHT22;23741;49.446;8.754;2023-11-19T03:30:27;13.40;75.20
37910;DHT22;23741;49.446;8.754;2023-11-19T03:32:32;13.40;75.30
37910;DHT22;23741;49.446;8.754;2023-11-19T03:34:36;13.40;75.60
37910;DHT22;23741;49.446;8.754;2023-11-19T03:36:38;13.50;75.80
37910;DHT22;23741;49.446;8.754;2023-11-19T03:38:41;13.40;75.80
37910;DHT22;23741;49.446;8.754;2023-11-19T03:40:44;13.50;76.00
37910;DHT22;23741;49.446;8.754;2023-11-19T03:42:46;13.50;76.70
37910;DHT22;23741;49.446;8.754;2023-11-19T03:44:48;13.50;76.00
37910;DHT22;23741;49.446;8.754;2023-11-19T03:46:51;13.60;76.00
37910;DHT22;23741;49.446;8.754;2023-11-19T03:48:53;13.50;75.60
37910;DHT22;23741;49.446;8.754;2023-11-19T03:50:54;13.50;75.40
37910;DHT22;23741;49.446;8.754;2023-11-19T03:52:56;13.50;75.40
37910;DHT22;23741;49.446;8.754;2023-11-19T03:54:58;13.50;75.60
37910;DHT22;23741;49.446;8.754;2023-11-19T03:57:00;13.50;75.50
37910;DHT22;23741;49.446;8.754;2023-11-19T03:59:02;13.50;75.60
37910;DHT22;23741;49.446;8.754;2023-11-19T04:01:04;13.50;75.60
37910;DHT22;23741;49.446;8.754;2023-11-19T04:03:06;13.50;75.80
37910;DHT22;23741;49.446;8.754;2023-11-19T04:05:08;13.60;76.00
37910;DHT22;23741;49.446;8.754;2023-11-19T04:07:11;13.50;75.70
37910;DHT22;23741;49.446;8.754;2023-11-19T04:09:13;13.60;75.60
37910;DHT22;23741;49.446;8.754;2023-11-19T04:11:14;13.60;75.80
37910;DHT22;23741;49.446;8.754;2023-11-19T04:13:16;13.60;75.50
37910;DHT22;23741;49.446;8.754;2023-11-19T04:15:18;13.70;75.70
37910;DHT22;23741;49.446;8.754;2023-11-19T04:17:20;13.60;75.80
37910;DHT22;23741;49.446;8.754;2023-11-19T04:19:21;13.60;76.00
37910;DHT22;23741;49.446;8.754;2023-11-19T04:21:25;13.60;76.00
37910;DHT22;23741;49.446;8.754;2023-11-19T04:23:26;13.60;76.10
37910;DHT22;23741;49.446;8.754;2023-11-19T04:25:28;13.70;76.00
37910;DHT22;23741;49.446;8.754;2023-11-19T04:27:30;13.60;76.10
37910;DHT22;23741;49.446;8.754;2023-11-19T04:29:32;13.70;76.20
37910;DHT22;23741;49.446;8.754;2023-11-19T04:31:34;13.70;76.20
37910;DHT22;23741;49.446;8.754;2023-11-19T04:33:35;13.70;75.90
37910;DHT22;23741;49.446;8.754;2023-11-19T04:35:37;13.70;76.20
37910;DHT22;23741;49.446;8.754;2023-11-19T04:37:39;13.70;76.20
37910;DHT22;23741;49.446;8.754;2023-11-19T04:39:41;13.70;75.90
37910;DHT22;23741;49.446;8.754;2023-11-19T04:41:45;13.70;76.20
37910;DHT22;23741;49.446;8.754;2023-11-19T04:43:47;13.70;76.20
37910;DHT22;23741;49.446;8.754;2023-11-19T04:45:48;13.70;76.30
37910;DHT22;23741;49.446;8.754;2023-11-19T04:47:50;13.70;76.50
37910;DHT22;23741;49.446;8.754;2023-11-19T04:49:52;13.70;76.30
37910;DHT22;23741;49.446;8.754;2023-11-19T04:51:54;13.70;76.40
37910;DHT22;23741;49.446;8.754;2023-11-19T04:53:55;13.80;76.60
37910;DHT22;23741;49.446;8.754;2023-11-19T04:55:57;13.80;76.40
37910;DHT22;23741;49.446;8.754;2023-11-19T04:58:00;13.80;75.90
37910;DHT22;23741;49.446;8.754;2023-11-19T05:00:03;13.80;76.10
37910;DHT22;23741;49.446;8.754;2023-11-19T05:02:17;13.80;76.50
37910;DHT22;23741;49.446;8.754;2023-11-19T05:04:19;13.90;76.40
37910;DHT22;23741;49.446;8.754;2023-11-19T05:06:21;13.90;76.60
37910;DHT22;23741;49.446;8.754;2023-11-19T05:08:23;13.90;76.20
37910;DHT22;23741;49.446;8.754;2023-11-19T05:10:25;13.90;76.30
37910;DHT22;23741;49.446;8.754;2023-11-19T05:12:26;13.90;76.20
37910;DHT22;23741;49.446;8.754;2023-11-19T05:14:28;13.90;76.50
37910;DHT22;23741;49.446;8.754;2023-11-19T05:16:30;13.90;76.60
37910;DHT22;23741;49.446;8.754;2023-11-19T05:18:32;13.90;76.50
37910;DHT22;23741;49.446;8.754;2023-11-19T05:20:34;14.00;76.70
37910;DHT22;23741;49.446;8.754;2023-11-19T05:22:36;14.00;76.60
37910;DHT22;23741;49.446;8.754;2023-11-19T05:24:38;14.00;76.60
37910;DHT22;23741;49.446;8.754;2023-11-19T05:26:41;14.00;76.50
37910;DHT22;23741;49.446;8.754;2023-11-19T05:28:42;14.10;76.50
37910;DHT22;23741;49.446;8.754;2023-11-19T05:30:45;14.00;76.40
37910;DHT22;23741;49.446;8.754;2023-11-19T05:32:46;14.10;76.50
37910;DHT22;23741;49.446;8.754;2023-11-19T05:34:48;14.00;76.60
37910;DHT22;23741;49.446;8.754;2023-11-19T05:36:53;14.00;76.60
37910;DHT22;23741;49.446;8.754;2023-11-19T05:38:55;14.10;76.50
37910;DHT22;23741;49.446;8.754;2023-11-19T05:40:57;14.10;76.60
37910;DHT22;23741;49.446;8.754;2023-11-19T05:42:59;14.10;76.60
37910;DHT22;23741;49.446;8.754;2023-11-19T05:45:01;14.10;76.70
37910;DHT22;23741;49.446;8.754;2023-11-19T05:47:03;14.10;76.90
37910;DHT22;23741;49.446;8.754;2023-11-19T05:49:05;14.10;76.60
37910;DHT22;23741;49.446;8.754;2023-11-19T05:51:06;14.10;76.70
37910;DHT22;23741;49.446;8.754;2023-11-19T05:53:08;14.10;76.80
37910;DHT22;23741;49.446;8.754;2023-11-19T05:55:14;14.10;76.80
37910;DHT22;23741;49.446;8.754;2023-11-19T05:57:16;14.20;76.80
37910;DHT22;23741;49.446;8.754;2023-11-19T05:59:21;14.20;76.50
37910;DHT22;23741;49.446;8.754;2023-11-19T06:01:24;14.20;76.80
37910;DHT22;23741;49.446;8.754;2023-11-19T06:03:26;14.20;76.80
37910;DHT22;23741;49.446;8.754;2023-11-19T06:05:28;14.20;76.80
37910;DHT22;23741;49.446;8.754;2023-11-19T06:07:30;14.30;77.00
37910;DHT22;23741;49.446;8.754;2023-11-19T06:09:31;14.30;76.90
37910;DHT22;23741;49.446;8.754;2023-11-19T06:11:36;14.30;77.00
37910;DHT22;23741;49.446;8.754;2023-11-19T06:13:37;14.30;77.10
37910;DHT22;23741;49.446;8.754;2023-11-19T06:15:40;14.30;77.10
37910;DHT22;23741;49.446;8.754;2023-11-19T06:17:41;14.30;77.10
37910;DHT22;23741;49.446;8.754;2023-11-19T06:19:44;14.40;77.30
37910;DHT22;23741;49.446;8.754;2023-11-19T06:21:46;14.30;76.70
37910;DHT22;23741;49.446;8.754;2023-11-19T06:23:48;14.40;77.00
37910;DHT22;23741;49.446;8.754;2023-11-19T06:25:50;14.40;76.80
37910;DHT22;23741;49.446;8.754;2023-11-19T06:27:52;14.40;77.00
37910;DHT22;23741;49.446;8.754;2023-11-19T06:29:54;14.40;77.00
37910;DHT22;23741;49.446;8.754;2023-11-19T06:31:56;14.40;76.60
37910;DHT22;23741;49.446;8.754;2023-11-19T06:33:58;14.40;76.80
37910;DHT22;23741;49.446;8.754;2023-11-19T06:36:00;14.50;76.60
37910;DHT22;23741;49.446;8.754;2023-11-19T06:38:02;14.40;76.60
37910;DHT22;23741;49.446;8.754;2023-11-19T06:40:06;14.50;76.60
37910;DHT22;23741;49.446;8.754;2023-11-19T06:42:08;14.50;76.50
37910;DHT22;23741;49.446;8.754;2023-11-19T06:44:10;14.50;76.60
37910;DHT22;23741;49.446;8.754;2023-11-19T06:46:15;14.40;76.80
37910;DHT22;23741;49.446;8.754;2023-11-19T06:48:16;14.50;76.60
37910;DHT22;23741;49.446;8.754;2023-11-19T06:50:18;14.50;76.70
37910;DHT22;23741;49.446;8.754;2023-11-19T06:52:20;14.50;76.60
37910;DHT22;23741;49.446;8.754;2023-11-19T06:54:22;14.50;76.40
37910;DHT22;23741;49.446;8.754;2023-11-19T06:56:24;14.50;76.50
37910;DHT22;23741;49.446;8.754;2023-11-19T06:58:26;14.50;76.40
37910;DHT22;23741;49.446;8.754;2023-11-19T07:00:27;14.50;76.30
37910;DHT22;23741;49.446;8.754;2023-11-19T07:02:29;14.50;76.50
37910;DHT22;23741;49.446;8.754;2023-11-19T07:04:32;14.60;76.70
37910;DHT22;23741;49.446;8.754;2023-11-19T07:06:35;14.60;76.80
37910;DHT22;23741;49.446;8.754;2023-11-19T07:08:37;14.60;76.90
37910;DHT22;23741;49.446;8.754;2023-11-19T07:10:40;14.60;76.70
37910;DHT22;23741;49.446;8.754;2023-11-19T07:12:42;14.60;76.60
37910;DHT22;23741;49.446;8.754;2023-11-19T07:14:43;14.70;76.70
37910;DHT22;23741;49.446;8.754;2023-11-19T07:16:45;14.60;76.90
37910;DHT22;23741;49.446;8.754;2023-11-19T07:18:51;14.60;77.00
37910;DHT22;23741;49.446;8.754;2023-11-19T07:20:53;14.60;77.00
37910;DHT22;23741;49.446;8.754;2023-11-19T07:22:56;14.60;77.00
37910;DHT22;23741;49.446;8.754;2023-11-19T07:24:59;14.70;77.20
37910;DHT22;23741;49.446;8.754;2023-11-19T07:27:01;14.70;76.90
37910;DHT22;23741;49.446;8.754;2023-11-19T07:29:05;14.70;77.20
37910;DHT22;23741;49.446;8.754;2023-11-19T07:31:09;14.70;77.20
37910;DHT22;23741;49.446;8.754;2023-11-19T07:33:11;14.70;77.30
37910;DHT22;23741;49.446;8.754;2023-11-19T07:35:13;14.70;77.20
37910;DHT22;23741;49.446;8.754;2023-11-19T07:37:15;14.80;77.20
37910;DHT22;23741;49.446;8.754;2023-11-19T07:39:18;14.80;77.00
37910;DHT22;23741;49.446;8.754;2023-11-19T07:41:22;14.80;77.10
37910;DHT22;23741;49.446;8.754;2023-11-19T07:43:23;14.90;77.10
37910;DHT22;23741;49.446;8.754;2023-11-19T07:45:25;14.80;77.20
37910;DHT22;23741;49.446;8.754;2023-11-19T07:47:29;14.80;77.10
37910;DHT22;23741;49.446;8.754;2023-11-19T07:49:31;14.90;77.40
37910;DHT22;23741;49.446;8.754;2023-11-19T07:51:32;14.90;77.50
37910;DHT22;23741;49.446;8.754;2023-11-19T07:53:34;14.90;77.40
37910;DHT22;23741;49.446;8.754;2023-11-19T07:55:36;15.00;77.20
37910;DHT22;23741;49.446;8.754;2023-11-19T07:57:43;14.90;77.10
37910;DHT22;23741;49.446;8.754;2023-11-19T07:59:44;15.00;77.20
37910;DHT22;23741;49.446;8.754;2023-11-19T08:01:46;15.00;77.00
37910;DHT22;23741;49.446;8.754;2023-11-19T08:03:48;15.00;76.90
37910;DHT22;23741;49.446;8.754;2023-11-19T08:05:55;15.00;76.80
37910;DHT22;23741;49.446;8.754;2023-11-19T08:07:57;15.00;76.80
37910;DHT22;23741;49.446;8.754;2023-11-19T08:09:59;15.00;76.80
37910;DHT22;23741;49.446;8.754;2023-11-19T08:12:01;15.00;76.60
37910;DHT22;23741;49.446;8.754;2023-11-19T08:14:03;15.00;76.70
37910;DHT22;23741;49.446;8.754;2023-11-19T08:16:05;15.00;76.70
37910;DHT22;23741;49.446;8.754;2023-11-19T08:18:07;15.00;76.80
37910;DHT22;23741;49.446;8.754;2023-11-19T08:20:10;15.00;76.50
37910;DHT22;23741;49.446;8.754;2023-11-19T08:22:12;15.00;76.90
37910;DHT22;23741;49.446;8.754;2023-11-19T08:24:14;15.00;77.00
37910;DHT22;23741;49.446;8.754;2023-11-19T08:26:16;15.00;77.00
37910;DHT22;23741;49.446;8.754;2023-11-19T08:28:22;15.00;77.00
37910;DHT22;23741;49.446;8.754;2023-11-19T08:30:24;15.10;77.20
37910;DHT22;23741;49.446;8.754;2023-11-19T08:32:26;15.10;77.20
37910;DHT22;23741;49.446;8.754;2023-11-19T08:34:29;15.00;77.10
37910;DHT22;23741;49.446;8.754;2023-11-19T08:36:31;15.10;77.10
37910;DHT22;23741;49.446;8.754;2023-11-19T08:38:33;15.10;77.00
37910;DHT22;23741;49.446;8.754;2023-11-19T08:40:35;15.10;77.10
37910;DHT22;23741;49.446;8.754;2023-11-19T08:42:36;15.10;77.00
37910;DHT22;23741;49.446;8.754;2023-11-19T08:44:40;15.10;77.30
37910;DHT22;23741;49.446;8.754;2023-11-19T08:46:51;15.10;77.40
37910;DHT22;23741;49.446;8.754;2023-11-19T08:48:53;15.10;77.40
37910;DHT22;23741;49.446;8.754;2023-11-19T08:50:57;15.10;77.30
37910;DHT22;23741;49.446;8.754;2023-11-19T08:52:59;15.10;77.30
37910;DHT22;23741;49.446;8.754;2023-11-19T08:55:01;15.10;77.00
37910;DHT22;23741;49.446;8.754;2023-11-19T08:57:03;15.20;77.20
37910;DHT22;23741;49.446;8.754;2023-11-19T08:59:05;15.10;77.20
37910;DHT22;23741;49.446;8.754;2023-11-19T09:01:07;15.10;77.10
37910;DHT22;23741;49.446;8.754;2023-11-19T09:03:08;15.20;77.10
37910;DHT22;23741;49.446;8.754;2023-11-19T09:05:11;15.20;77.20
37910;DHT22;23741;49.446;8.754;2023-11-19T09:07:14;15.20;77.00
37910;DHT22;23741;49.446;8.754;2023-11-19T09:09:16;15.20;77.20
37910;DHT22;23741;49.446;8.754;2023-11-19T09:11:18;15.20;77.20
37910;DHT22;23741;49.446;8.754;2023-11-19T09:13:20;15.20;77.30
37910;DHT22;23741;49.446;8.754;2023-11-19T09:15:22;15.20;77.50
37910;DHT22;23741;49.446;8.754;2023-11-19T09:17:23;15.20;77.80
37910;DHT22;23741;49.446;8.754;2023-11-19T09:19:25;15.30;77.80
37910;DHT22;23741;49.446;8.754;2023-11-19T09:21:28;15.30;77.50
37910;DHT22;23741;49.446;8.754;2023-11-19T09:23:31;15.30;77.50
37910;DHT22;23741;49.446;8.754;2023-11-19T09:25:38;15.30;77.40
37910;DHT22;23741;49.446;8.754;2023-11-19T09:27:43;15.40;77.40
37910;DHT22;23741;49.446;8.754;2023-11-19T09:29:45;15.40;77.50
37910;DHT22;23741;49.446;8.754;2023-11-19T09:31:48;15.40;77.20
37910;DHT22;23741;49.446;8.754;2023-11-19T09:33:50;15.40;77.30
37910;DHT22;23741;49.446;8.754;2023-11-19T09:35:51;15.40;77.40
37910;DHT22;23741;49.446;8.754;2023-11-19T09:37:53;15.50;77.60
37910;DHT22;23741;49.446;8.754;2023-11-19T09:39:55;15.50;77.50
37910;DHT22;23741;49.446;8.754;2023-11-19T09:41:58;15.50;77.50
37910;DHT22;23741;49.446;8.754;2023-11-19T09:44:00;15.50;77.50
37910;DHT22;23741;49.446;8.754;2023-11-19T09:46:04;15.50;77.30
37910;DHT22;23741;49.446;8.754;2023-11-19T09:48:08;15.50;77.30
37910;DHT22;23741;49.446;8.754;2023-11-19T09:50:11;15.50;77.10
37910;DHT22;23741;49.446;8.754;2023-11-19T09:52:16;15.50;77.10
37910;DHT22;23741;49.446;8.754;2023-11-19T09:54:17;15.50;77.00
37910;DHT22;23741;49.446;8.754;2023-11-19T09:56:19;15.50;77.10
37910;DHT22;23741;49.446;8.754;2023-11-19T09:58:21;15.50;77.20
37910;DHT22;23741;49.446;8.754;2023-11-19T10:00:24;15.50;77.00
37910;DHT22;23741;49.446;8.754;2023-11-19T10:02:26;15.60;77.20
37910;DHT22;23741;49.446;8.754;2023-11-19T10:04:29;15.60;77.20
37910;DHT22;23741;49.446;8.754;2023-11-19T10:06:32;15.60;77.10
37910;DHT22;23741;49.446;8.754;2023-11-19T10:08:36;15.60;77.00
37910;DHT22;23741;49.446;8.754;2023-11-19T10:10:39;15.60;77.00
37910;DHT22;23741;49.446;8.754;2023-11-19T10:12:40;15.60;77.20
37910;DHT22;23741;49.446;8.754;2023-11-19T10:14:58;15.60;77.40
37910;DHT22;23741;49.446;8.754;2023-11-19T10:17:01;15.60;77.20
37910;DHT22;23741;49.446;8.754;2023-11-19T10:19:05;15.60;77.20
37910;DHT22;23741;49.446;8.754;2023-11-19T10:21:07;15.60;77.10
37910;DHT22;23741;49.446;8.754;2023-11-19T10:23:09;15.60;76.90
37910;DHT22;23741;49.446;8.754;2023-11-19T10:25:22;15.70;77.10
37910;DHT22;23741;49.446;8.754;2023-11-19T10:27:25;15.70;77.20
37910;DHT22;23741;49.446;8.754;2023-11-19T10:29:28;15.70;77.50
37910;DHT22;23741;49.446;8.754;2023-11-19T10:31:30;15.70;77.40
37910;DHT22;23741;49.446;8.754;2023-11-19T10:33:32;15.60;77.00
37910;DHT22;23741;49.446;8.754;2023-11-19T10:35:35;15.70;77.20
37910;DHT22;23741;49.446;8.754;2023-11-19T10:37:37;15.70;77.30
37910;DHT22;23741;49.446;8.754;2023-11-19T10:39:52;15.70;77.10
37910;DHT22;23741;49.446;8.754;2023-11-19T10:41:57;15.70;77.20
37910;DHT22;23741;49.446;8.754;2023-11-19T10:44:01;15.70;77.20
37910;DHT22;23741;49.446;8.754;2023-11-19T10:46:13;15.70;77.30
37910;DHT22;23741;49.446;8.754;2023-11-19T10:48:15;15.80;77.40
37910;DHT22;23741;49.446;8.754;2023-11-19T10:50:17;15.70;77.40
37910;DHT22;23741;49.446;8.754;2023-11-19T10:52:19;15.80;77.50
37910;DHT22;23741;49.446;8.754;2023-11-19T10:54:23;15.80;77.40
37910;DHT22;23741;49.446;8.754;2023-11-19T10:56:26;15.80;77.50
37910;DHT22;23741;49.446;8.754;2023-11-19T10:58:32;15.80;77.50
37910;DHT22;23741;49.446;8.754;2023-11-19T11:02:54;15.90;77.90
37910;DHT22;23741;49.446;8.754;2023-11-19T11:04:58;15.90;77.80
37910;DHT22;23741;49.446;8.754;2023-11-19T11:07:00;15.90;77.80
37910;DHT22;23741;49.446;8.754;2023-11-19T11:09:03;16.00;77.70
37910;DHT22;23741;49.446;8.754;2023-11-19T11:11:07;16.00;77.70
37910;DHT22;23741;49.446;8.754;2023-11-19T11:13:09;16.00;77.70
37910;DHT22;23741;49.446;8.754;2023-11-19T11:15:11;16.00;77.60
37910;DHT22;23741;49.446;8.754;2023-11-19T11:17:17;16.00;78.50
37910;DHT22;23741;49.446;8.754;2023-11-19T11:19:20;16.00;77.50
37910;DHT22;23741;49.446;8.754;2023-11-19T11:21:22;16.00;77.60
37910;DHT22;23741;49.446;8.754;2023-11-19T11:25:37;16.10;77.50
37910;DHT22;23741;49.446;8.754;2023-11-19T11:34:22;16.10;77.40
37910;DHT22;23741;49.446;8.754;2023-11-19T11:36:27;16.10;77.50
37910;DHT22;23741;49.446;8.754;2023-11-19T11:38:30;16.20;77.40
37910;DHT22;23741;49.446;8.754;2023-11-19T11:40:36;16.10;77.30
37910;DHT22;23741;49.446;8.754;2023-11-19T11:42:37;16.20;77.30
37910;DHT22;23741;49.446;8.754;2023-11-19T11:47:05;16.20;77.00
37910;DHT22;23741;49.446;8.754;2023-11-19T11:49:07;16.20;77.00
37910;DHT22;23741;49.446;8.754;2023-11-19T11:51:09;16.20;77.00
37910;DHT22;23741;49.446;8.754;2023-11-19T11:53:18;16.20;76.90
37910;DHT22;23741;49.446;8.754;2023-11-19T11:55:23;16.20;77.00
37910;DHT22;23741;49.446;8.754;2023-11-19T11:57:26;16.20;76.80
37910;DHT22;23741;49.446;8.754;2023-11-19T12:01:40;16.30;77.00
37910;DHT22;23741;49.446;8.754;2023-11-19T12:03:58;16.30;77.00
37910;DHT22;23741;49.446;8.754;2023-11-19T12:06:00;16.30;77.00
37910;DHT22;23741;49.446;8.754;2023-11-19T12:08:03;16.30;77.00
37910;DHT22;23741;49.446;8.754;2023-11-19T12:10:06;16.30;77.00
37910;DHT22;23741;49.446;8.754;2023-11-19T12:14:16;16.40;77.20
37910;DHT22;23741;49.446;8.754;2023-11-19T12:16:19;16.40;77.10
37910;DHT22;23741;49.446;8.754;2023-11-19T12:18:26;16.40;77.10
37910;DHT22;23741;49.446;8.754;2023-11-19T12:20:28;16.40;77.20
37910;DHT22;23741;49.446;8.754;2023-11-19T12:22:40;16.40;76.90
37910;DHT22;23741;49.446;8.754;2023-11-19T12:24:42;16.40;76.80
37910;DHT22;23741;49.446;8.754;2023-11-19T12:26:44;16.50;76.80
37910;DHT22;23741;49.446;8.754;2023-11-19T12:28:57;16.50;76.70
37910;DHT22;23741;49.446;8.754;2023-11-19T12:31:08;16.50;76.60
37910;DHT22;23741;49.446;8.754;2023-11-19T12:33:11;16.50;76.60
37910;DHT22;23741;49.446;8.754;2023-11-19T12:35:13;16.50;76.50
37910;DHT22;23741;49.446;8.754;2023-11-19T12:37:15;16.50;76.50
37910;DHT22;23741;49.446;8.754;2023-11-19T12:39:17;16.50;76.50
37910;DHT22;23741;49.446;8.754;2023-11-19T12:41:19;16.50;76.50
37910;DHT22;23741;49.446;8.754;2023-11-19T12:43:24;16.50;76.40
37910;DHT22;23741;49.446;8.754;2023-11-19T12:45:35;16.50;76.10
37910;DHT22;23741;49.446;8.754;2023-11-19T12:47:38;16.50;76.00
37910;DHT22;23741;49.446;8.754;2023-11-19T12:49:40;16.50;75.90
37910;DHT22;23741;49.446;8.754;2023-11-19T12:51:42;16.50;75.80
37910;DHT22;23741;49.446;8.754;2023-11-19T12:53:48;16.60;75.70
37910;DHT22;23741;49.446;8.754;2023-11-19T12:55:51;16.50;75.60
37910;DHT22;23741;49.446;8.754;2023-11-19T12:57:53;16.60;75.50
37910;DHT22;23741;49.446;8.754;2023-11-19T12:59:59;16.60;75.40
37910;DHT22;23741;49.446;8.754;2023-11-19T13:02:01;16.60;75.30
37910;DHT22;23741;49.446;8.754;2023-11-19T13:04:17;16.60;75.30
37910;DHT22;23741;49.446;8.754;2023-11-19T13:06:20;16.60;75.40
37910;DHT22;23741;49.446;8.754;2023-11-19T13:08:23;16.60;75.40
37910;DHT22;23741;49.446;8.754;2023-11-19T13:10:26;16.60;75.50
37910;DHT22;23741;49.446;8.754;2023-11-19T13:12:27;16.60;75.70